Data for 07/25/2013

Time Sea-Level Adjusted Pressure Absolute Pressure Temperature Relative Humidity Dew Point   
(mb) (inHg) (mb) (inHg) (C) (F) (%) (C) (F)
00:05 1021 30.15 850 25.1 22 71.6 29 3.3 38
00:10 1021 30.15 850 25.1 21.8 71.3 29 3.4 38.1
00:15 1021 30.15 850 25.1 21.5 70.8 30 3.4 38.1
00:20 1021 30.15 850 25.1 21.5 70.7 30 3.4 38.1
00:25 1021 30.15 851 25.13 21.5 70.7 30 3.6 38.5
00:30 1021 30.15 851 25.13 21.3 70.4 31 3.7 38.7
00:35 1022 30.18 851 25.13 21.4 70.5 33 4.7 40.4
00:40 1022 30.18 851 25.13 20.8 69.5 38 6.3 43.4
00:45 1022 30.18 851 25.13 20.3 68.5 43 7.3 45.1
00:50 1022 30.18 851 25.13 19.9 67.8 45 7.7 45.8
00:55 1022 30.18 851 25.13 19.7 67.4 46 8 46.4
01:00 1022 30.18 851 25.13 19.4 66.9 48 8.2 46.7
01:05 1022 30.18 851 25.13 19.2 66.5 49 8.2 46.8
01:10 1022 30.18 851 25.13 19 66.1 50 8.3 47
01:15 1022 30.18 851 25.13 18.8 65.9 50 8.4 47.1
01:20 1022 30.18 852 25.16 18.8 65.8 51 8.5 47.2
01:25 1022 30.18 851 25.13 18.7 65.7 51 8.6 47.5
01:30 1022 30.18 852 25.16 18.6 65.6 52 8.8 47.8
01:35 1022 30.18 852 25.16 18.4 65.1 53 8.8 47.9
01:40 1022 30.18 852 25.16 18.3 64.9 53 8.7 47.7
01:45 1022 30.18 852 25.16 18.2 64.8 53 8.6 47.5
01:50 1022 30.18 852 25.16 18.3 64.9 53 8.6 47.5
01:55 1022 30.18 852 25.16 18.3 64.9 53 8.6 47.5
02:00 1023 30.21 852 25.16 18.2 64.7 53 8.7 47.6
02:05 1023 30.21 852 25.16 18 64.4 54 8.6 47.5
02:10 1023 30.21 852 25.16 18 64.3 54 8.5 47.3
02:15 1023 30.21 852 25.16 17.9 64.2 53 8.4 47.2
02:20 1023 30.21 852 25.16 18 64.4 53 8.3 47
02:25 1023 30.21 852 25.16 18 64.4 52 8.1 46.6
02:30 1023 30.21 852 25.16 18 64.4 52 8.1 46.6
02:35 1023 30.21 852 25.16 18 64.4 52 8.2 46.8
02:40 1023 30.21 852 25.16 17.9 64.3 52 8 46.5
02:45 1023 30.21 852 25.16 17.9 64.3 52 8 46.3
02:50 1023 30.21 852 25.16 18 64.3 51 7.8 46
02:55 1023 30.21 852 25.16 18 64.4 50 7.7 45.8
03:00 1023 30.21 852 25.16 18 64.5 50 7.6 45.7
03:05 1023 30.21 852 25.16 18.1 64.5 50 7.6 45.7
03:10 1023 30.21 852 25.16 18.1 64.6 51 7.8 46.1
03:15 1023 30.21 852 25.16 17.9 64.2 52 7.9 46.2
03:20 1023 30.21 852 25.16 17.7 63.9 52 7.8 46.1
03:25 1023 30.21 852 25.16 17.7 63.8 53 8 46.3
03:30 1023 30.21 852 25.16 17.6 63.7 52 7.9 46.2
03:35 1023 30.21 852 25.16 17.6 63.7 53 8.1 46.5
03:40 1023 30.21 852 25.16 17.5 63.5 54 8.1 46.6
03:45 1023 30.21 853 25.19 17.3 63.2 55 8.3 47
03:50 1023 30.21 853 25.19 17.1 62.7 56 8.3 47
03:55 1023 30.21 853 25.19 17 62.5 56 8.3 47
04:00 1023 30.21 853 25.19 16.9 62.5 57 8.4 47.1
04:05 1023 30.21 853 25.19 17 62.6 56 8.3 47
04:10 1024 30.24 853 25.19 17 62.6 57 8.4 47.2
04:15 1024 30.24 853 25.19 17 62.5 57 8.4 47.2
04:20 1024 30.24 853 25.19 16.9 62.5 57 8.6 47.4
04:25 1024 30.24 853 25.19 16.8 62.3 58 8.5 47.4
04:30 1024 30.24 853 25.19 16.7 62.1 58 8.6 47.4
04:35 1024 30.24 853 25.19 16.6 62 59 8.6 47.5
04:40 1024 30.24 853 25.19 16.6 61.9 59 8.6 47.4
04:45 1024 30.24 853 25.19 16.5 61.8 59 8.7 47.6
04:50 1024 30.24 853 25.19 16.5 61.7 59 8.7 47.6
04:55 1024 30.24 853 25.19 16.5 61.8 59 8.6 47.5
05:00 1024 30.24 853 25.19 16.5 61.8 59 8.7 47.6
05:05 1024 30.24 853 25.19 16.6 61.9 59 8.7 47.6
05:10 1024 30.24 853 25.19 16.5 61.7 59 8.7 47.6
05:15 1024 30.24 853 25.19 16.5 61.6 60 8.8 47.8
05:20 1024 30.24 853 25.19 16.4 61.4 60 8.7 47.7
05:25 1024 30.24 853 25.19 16.4 61.5 60 8.7 47.7
05:30 1024 30.24 853 25.19 16.4 61.5 60 8.7 47.6
05:35 1024 30.24 853 25.19 16.4 61.4 60 8.7 47.7
05:40 1024 30.24 853 25.19 16.2 61.2 61 8.9 48
05:45 1024 30.24 853 25.19 16 60.9 62 8.9 48
05:50 1024 30.24 853 25.19 16 60.7 62 8.8 47.9
05:55 1024 30.24 853 25.19 15.9 60.7 62 8.8 47.9
06:00 1024 30.24 853 25.19 15.9 60.7 62 8.8 47.8
06:05 1024 30.24 853 25.19 16.1 61 62 8.8 47.8
06:10 1024 30.24 853 25.19 16.3 61.3 61 8.9 47.9
06:15 1024 30.24 853 25.19 16.4 61.5 61 9 48.1
06:20 1024 30.24 853 25.19 16.5 61.7 61 8.9 48.1
06:25 1024 30.24 853 25.19 16.7 62 60 9 48.2
06:30 1024 30.24 854 25.22 16.9 62.3 59 8.9 48.1
06:35 1024 30.24 854 25.22 17.1 62.8 59 9.1 48.3
06:40 1024 30.24 854 25.22 17.3 63.1 58 9 48.1
06:45 1024 30.24 854 25.22 17.6 63.6 57 9 48.2
06:50 1024 30.24 854 25.22 17.7 63.9 56 8.9 48.1
06:55 1024 30.24 854 25.22 17.9 64.1 56 9 48.2
07:00 1024 30.24 854 25.22 17.7 63.9 56 8.9 48.1
07:05 1024 30.24 854 25.22 17.9 64.2 56 9.1 48.4
07:10 1024 30.24 854 25.22 17.7 63.9 56 9 48.2
07:15 1024 30.24 854 25.22 17.9 64.1 56 9.1 48.4
07:20 1024 30.24 854 25.22 18 64.5 56 9.2 48.5
07:25 1025 30.27 854 25.22 18.1 64.6 55 9.1 48.4
07:30 1024 30.24 854 25.22 18.3 65 55 9.2 48.6
07:35 1024 30.24 854 25.22 18.2 64.8 54 9 48.2
07:40 1024 30.24 854 25.22 18.5 65.3 53 9 48.1
07:45 1024 30.24 854 25.22 18.7 65.6 53 8.9 48.1
07:50 1024 30.24 854 25.22 19 66.1 52 9.1 48.4
07:55 1024 30.24 854 25.22 18.9 66.1 52 9 48.2
08:00 1024 30.24 854 25.22 19 66.2 51 8.8 47.9
08:05 1024 30.24 854 25.22 19.1 66.5 50 8.5 47.3
08:10 1024 30.24 854 25.22 19 66.3 50 8.6 47.5
08:15 1024 30.24 854 25.22 19.2 66.6 50 8.7 47.6
08:20 1024 30.24 854 25.22 19.5 67.1 50 8.8 47.8
08:25 1024 30.24 854 25.22 19.7 67.4 48 8.5 47.3
08:30 1024 30.24 854 25.22 19.7 67.5 48 8.7 47.6
08:35 1024 30.24 854 25.22 19.9 67.8 48 8.6 47.5
08:40 1024 30.24 854 25.22 20.4 68.8 46 8.5 47.3
08:45 1024 30.24 854 25.22 20.9 69.6 45 8.7 47.6
08:50 1024 30.24 854 25.22 20.9 69.6 44 8.3 47
08:55 1024 30.24 854 25.22 21.5 70.7 43 8.5 47.3
09:00 1024 30.24 854 25.22 21.4 70.6 44 8.9 48
09:05 1024 30.24 854 25.22 21.1 70 44 8.7 47.6
09:10 1024 30.24 854 25.22 21.2 70.2 44 8.6 47.5
09:15 1024 30.24 854 25.22 21.4 70.4 44 8.7 47.7
09:20 1024 30.24 853 25.19 21.7 71 44 9.1 48.4
09:25 1024 30.24 853 25.19 21.5 70.7 44 8.8 47.8
09:30 1024 30.24 853 25.19 21.8 71.2 43 8.7 47.6
09:35 1024 30.24 853 25.19 21.8 71.2 42 8.5 47.4
09:40 1024 30.24 853 25.19 22 71.6 42 8.8 47.8
09:45 1024 30.24 853 25.19 22.6 72.7 39 8.2 46.7
09:50 1024 30.24 853 25.19 22.8 73.1 38 8 46.3
09:55 1024 30.24 853 25.19 22.9 73.2 39 8.5 47.2
10:00 1024 30.24 853 25.19 22.8 73 39 8.3 46.9
10:05 1024 30.24 853 25.19 22.8 73 39 8.3 47
10:10 1024 30.24 853 25.19 23.2 73.7 38 8.3 46.9
10:15 1024 30.24 853 25.19 23.5 74.2 36 7.6 45.8
10:20 1024 30.24 853 25.19 23.8 74.8 36 8.1 46.5
10:25 1024 30.24 853 25.19 23.6 74.5 35 7.6 45.7
10:30 1024 30.24 853 25.19 24.2 75.5 35 7.9 46.2
10:35 1024 30.24 853 25.19 24.2 75.5 33 7.3 45.2
10:40 1024 30.24 853 25.19 23.9 75 33 6.9 44.4
10:45 1024 30.24 853 25.19 24.2 75.5 33 7.3 45.1
10:50 1024 30.24 853 25.19 24.5 76 31 6.2 43.2
10:55 1024 30.24 853 25.19 24.5 76.1 32 6.8 44.3
11:00 1024 30.24 853 25.19 24.4 75.9 32 7 44.6
11:05 1024 30.24 853 25.19 24.6 76.3 30 5.9 42.6
11:10 1024 30.24 853 25.19 24.7 76.5 32 7.2 45
11:15 1024 30.24 853 25.19 24.5 76.2 33 7.3 45.1
11:20 1023 30.21 853 25.19 24.6 76.4 31 6.7 44.1
11:25 1024 30.24 853 25.19 25 77 31 6.8 44.3
11:30 1023 30.21 853 25.19 25.1 77.1 32 7.3 45.1
11:35 1023 30.21 853 25.19 25 76.9 32 7.1 44.9
11:40 1023 30.21 853 25.19 25 77.1 32 7.4 45.2
11:45 1023 30.21 853 25.19 25.3 77.6 30 6.9 44.4
11:50 1023 30.21 853 25.19 25.3 77.6 30 6.9 44.5
11:55 1023 30.21 852 25.16 25.3 77.5 30 6.7 44
12:00 1023 30.21 852 25.16 25.4 77.8 29 6.2 43.2
12:05 1023 30.21 852 25.16 25.7 78.3 28 6.3 43.3
12:10 1023 30.21 852 25.16 25.9 78.6 29 6.7 44
12:15 1023 30.21 852 25.16 25.9 78.6 28 6.2 43.2
12:20 1023 30.21 852 25.16 26.1 79.1 28 6.5 43.7
12:25 1023 30.21 852 25.16 26.3 79.3 29 6.9 44.5
12:30 1023 30.21 852 25.16 26.6 79.9 27 6.3 43.4
12:35 1023 30.21 852 25.16 26.8 80.3 26 6 42.9
12:40 1023 30.21 852 25.16 26.9 80.3 25 5.5 41.8
12:45 1023 30.21 852 25.16 26.7 80.1 26 5.7 42.2
12:50 1023 30.21 852 25.16 27.2 81 24 5.5 41.8
12:55 1023 30.21 852 25.16 27.2 80.9 24 5.3 41.6
13:00 1023 30.21 852 25.16 27.6 81.7 27 7.1 44.9
13:05 1023 30.21 852 25.16 27.9 82.2 24 5.7 42.2
13:10 1023 30.21 852 25.16 27.6 81.7 22 4 39.3
13:15 1023 30.21 852 25.16 27.7 81.9 19 2.2 36
13:20 1023 30.21 852 25.16 28.1 82.7 19 2.7 36.8
13:25 1023 30.21 852 25.16 27.9 82.2 21 3.8 38.9
13:30 1023 30.21 852 25.16 28.4 83.1 17 1.7 35
13:35 1023 30.21 852 25.16 29.4 84.9 15 0.4 32.7
13:40 1023 30.21 852 25.16 28.9 84 16 1 33.8
13:45 1023 30.21 852 25.16 29.1 84.3 16 1.1 34
13:50 1023 30.21 852 25.16 29 84.2 16 1.1 33.9
13:55 1023 30.21 852 25.16 29.8 85.7 15 1.1 34
14:00 1022 30.18 852 25.16 29.8 85.7 15 1 33.8
14:05 1022 30.18 852 25.16 30 86 15 0.9 33.6
14:10 1022 30.18 852 25.16 31 87.7 14 0.5 32.9
14:15 1022 30.18 852 25.16 30.1 86.2 15 1 33.8
14:20 1022 30.18 852 25.16 30.4 86.7 16 2 35.6
14:25 1022 30.18 852 25.16 30.6 87 15 1 33.7
14:30 1022 30.18 851 25.13 30.4 86.8 14 0.5 32.9
14:35 1022 30.18 851 25.13 30.6 87.1 12 -2.2 28
14:40 1022 30.18 851 25.13 30.7 87.3 10 -3.7 25.4
14:45 1022 30.18 851 25.13 30.9 87.6 11 -2.3 27.8
14:50 1022 30.18 851 25.13 31 87.8 10 -3.2 26.2
14:55 1022 30.18 851 25.13 30.9 87.6 10 -3.6 25.5
15:00 1022 30.18 851 25.13 30.1 86.2 11 -3.4 25.8
15:05 1022 30.18 851 25.13 30.4 86.7 11 -2.7 27.1
15:10 1022 30.18 851 25.13 30.6 87.1 11 -2.8 27
15:15 1022 30.18 851 25.13 30.3 86.5 11 -2.6 27.3
15:20 1022 30.18 851 25.13 30.7 87.3 9 -5.3 22.5
15:25 1022 30.18 851 25.13 31.1 87.9 9 -5.4 22.2
15:30 1022 30.18 851 25.13 30.9 87.6 9 -6 21.2
15:35 1022 30.18 851 25.13 30.8 87.4 10 -4.4 24.1
15:40 1022 30.18 851 25.13 31 87.9 9 -5.2 22.6
15:45 1022 30.18 851 25.13 31.1 88 10 -3.7 25.3
15:50 1022 30.18 851 25.13 31 87.9 11 -3.1 26.4
15:55 1022 30.18 851 25.13 31.1 88 11 -2.8 26.9
16:00 1022 30.18 851 25.13 31 87.8 12 -1.4 29.4
16:05 1022 30.18 851 25.13 31.1 88 12 -1.4 29.5
16:10 1022 30.18 851 25.13 31.3 88.3 11 -2.6 27.3
16:15 1022 30.18 851 25.13 31.2 88.2 11 -2.7 27.1
16:20 1022 30.18 851 25.13 31.2 88.1 11 -2.1 28.3
16:25 1022 30.18 851 25.13 30.3 86.6 12 -2.1 28.2
16:30 1022 30.18 851 25.13 30.7 87.3 12 -2 28.5
16:35 1021 30.15 851 25.13 30.7 87.3 12 -1.5 29.2
16:40 1021 30.15 851 25.13 31.1 87.9 12 -1.5 29.3
16:45 1021 30.15 851 25.13 31.4 88.6 11 -1.8 28.8
16:50 1021 30.15 851 25.13 31.3 88.3 12 -1.4 29.4
16:55 1021 30.15 851 25.13 31 87.9 11 -2.9 26.8
17:00 1021 30.15 851 25.13 30.8 87.4 11 -2.9 26.7
17:05 1021 30.15 851 25.13 29.9 85.7 12 -2.4 27.7
17:10 1021 30.15 851 25.13 30 86 12 -1.8 28.7
17:15 1021 30.15 851 25.13 29.9 85.8 13 -1.2 29.8
17:20 1021 30.15 851 25.13 30.2 86.4 12 -2 28.5
17:25 1021 30.15 851 25.13 30.2 86.3 12 -1.6 29.1
17:30 1021 30.15 850 25.1 29.8 85.6 13 -1.5 29.4
17:35 1021 30.15 850 25.1 30.5 86.8 13 -0.7 30.8
17:40 1021 30.15 850 25.1 30.8 87.4 12 -1.5 29.4
17:45 1021 30.15 850 25.1 29.7 85.5 13 -1.2 29.9
17:50 1021 30.15 850 25.1 29.3 84.7 14 -0.7 30.7
17:55 1021 30.15 850 25.1 29.1 84.4 14 -0.3 31.4
18:00 1021 30.15 850 25.1 29 84.1 14 -1 30.1
18:05 1021 30.15 850 25.1 28.7 83.6 14 -0.7 30.7
18:10 1021 30.15 850 25.1 28.6 83.4 15 -0.2 31.6
18:15 1021 30.15 850 25.1 28.9 84 16 0.5 32.9
18:20 1021 30.15 850 25.1 29.2 84.5 14 -1 30.1
18:25 1021 30.15 850 25.1 29.3 84.7 14 -0.5 31.1
18:30 1021 30.15 850 25.1 29.2 84.6 14 -0.6 30.9
18:35 1021 30.15 850 25.1 29.2 84.5 14 -0.6 30.9
18:40 1021 30.15 850 25.1 28.9 84 17 1.5 34.7
18:45 1021 30.15 850 25.1 28.4 83.1 19 3.1 37.6
18:50 1021 30.15 851 25.13 27.9 82.2 22 4.3 39.8
18:55 1021 30.15 851 25.13 27.7 81.9 20 3 37.5
19:00 1021 30.15 851 25.13 27.6 81.7 18 1.7 35.1
19:05 1021 30.15 851 25.13 27.6 81.6 23 5 41
19:10 1021 30.15 851 25.13 27.2 80.9 22 4 39.2
19:15 1021 30.15 851 25.13 26.6 79.8 25 5.2 41.4
19:20 1021 30.15 851 25.13 26.2 79.2 26 5.7 42.3
19:25 1021 30.15 851 25.13 25.9 78.7 28 6.3 43.3
19:30 1021 30.15 851 25.13 25.9 78.6 27 5.5 41.9
19:35 1022 30.18 851 25.13 25.5 77.8 27 5.2 41.3
19:40 1022 30.18 851 25.13 25.4 77.7 24 3.5 38.3
19:45 1022 30.18 851 25.13 25.3 77.5 25 4 39.2
19:50 1022 30.18 851 25.13 25 76.9 26 4.2 39.6
19:55 1022 30.18 851 25.13 24.8 76.6 26 4.4 39.9
20:00 1022 30.18 851 25.13 24.7 76.4 28 5 40.9
20:05 1022 30.18 851 25.13 24.4 76 29 5.4 41.8
20:10 1022 30.18 851 25.13 24.4 75.9 30 5.7 42.3
20:15 1022 30.18 851 25.13 24.3 75.7 30 5.7 42.3
20:20 1022 30.18 851 25.13 24.1 75.4 30 5.6 42.1
20:25 1022 30.18 851 25.13 24 75.2 30 5.6 42.1
20:30 1022 30.18 851 25.13 23.8 74.9 31 5.8 42.5
20:35 1022 30.18 851 25.13 23.8 74.8 32 6.1 43
20:40 1022 30.18 851 25.13 23.5 74.3 33 6.3 43.3
20:45 1022 30.18 852 25.16 23.3 73.9 34 6.7 44
20:50 1022 30.18 852 25.16 23 73.4 36 7.2 44.9
20:55 1022 30.18 852 25.16 22.7 72.9 37 7.3 45.2
21:00 1022 30.18 852 25.16 22.6 72.6 37 7.3 45.2
21:05 1022 30.18 852 25.16 22.5 72.4 38 7.5 45.5
21:10 1023 30.21 852 25.16 22.2 72 39 7.6 45.7
21:15 1023 30.21 852 25.16 22 71.6 39 7.8 46
21:20 1023 30.21 852 25.16 21.8 71.2 40 7.9 46.1
21:25 1023 30.21 852 25.16 21.6 70.8 41 8 46.3
21:30 1023 30.21 852 25.16 21.4 70.5 42 8.1 46.6
21:35 1023 30.21 852 25.16 21.2 70.1 43 8.1 46.7
21:40 1023 30.21 852 25.16 21.1 69.9 43 8.3 46.9
21:45 1023 30.21 852 25.16 21 69.7 44 8.2 46.8
21:50 1023 30.21 852 25.16 20.9 69.6 44 8.4 47.2
21:55 1023 30.21 852 25.16 20.8 69.4 45 8.5 47.4
22:00 1023 30.21 852 25.16 20.7 69.2 46 8.7 47.6
22:05 1023 30.21 852 25.16 20.6 69 46 8.7 47.7
22:10 1023 30.21 852 25.16 20.5 68.8 47 8.9 48.1
22:15 1023 30.21 852 25.16 20.3 68.6 48 9.1 48.3
22:20 1023 30.21 852 25.16 20.2 68.3 49 9.2 48.6
22:25 1023 30.21 852 25.16 20 68 50 9.3 48.8
22:30 1023 30.21 853 25.19 19.9 67.8 50 9.3 48.8
22:35 1023 30.21 853 25.19 19.8 67.6 50 9.3 48.7
22:40 1023 30.21 853 25.19 19.7 67.4 51 9.3 48.8
22:45 1023 30.21 853 25.19 19.5 67.2 51 9.4 48.8
22:50 1024 30.24 853 25.19 19.4 66.9 52 9.4 48.9
22:55 1024 30.24 853 25.19 19.2 66.6 53 9.4 48.9
23:00 1024 30.24 853 25.19 19.1 66.3 53 9.5 49
23:05 1024 30.24 853 25.19 18.9 66.1 53 9.4 48.8
23:10 1023 30.21 853 25.19 19 66.1 53 9.3 48.8
23:15 1024 30.24 853 25.19 18.9 66.1 53 9.4 48.8
23:20 1024 30.24 853 25.19 18.9 65.9 54 9.4 48.9
23:25 1024 30.24 853 25.19 18.8 65.8 54 9.4 48.9
23:30 1024 30.24 853 25.19 18.7 65.6 54 9.4 48.9
23:35 1024 30.24 853 25.19 18.6 65.4 55 9.4 49
23:40 1024 30.24 853 25.19 18.5 65.2 55 9.4 48.9
23:45 1024 30.24 853 25.19 18.4 65.1 55 9.4 49
23:50 1024 30.24 853 25.19 18.3 65 56 9.4 49
23:55 1024 30.24 853 25.19 18.2 64.8 56 9.5 49.1
24:00 1024 30.24 853 25.19 18.1 64.7 57 9.6 49.2